createdAt,value
2023-08-05T00:00:33.107Z,20.9
2023-08-05T00:15:33.233Z,20.9
2023-08-05T00:30:33.337Z,20.9
2023-08-05T00:45:33.167Z,20.9
2023-08-05T01:00:32.778Z,20.9
2023-08-05T01:15:32.858Z,20.9
2023-08-05T01:30:32.966Z,20.9
2023-08-05T01:45:32.503Z,20.9
2023-08-05T02:00:33.296Z,20.9
2023-08-05T02:15:33.272Z,20.8
2023-08-05T02:30:33.206Z,20.8
2023-08-05T02:45:33.559Z,20.8
2023-08-05T03:00:32.873Z,20.8
2023-08-05T03:15:32.751Z,20.7
2023-08-05T03:30:32.679Z,20.7
2023-08-05T03:45:33.342Z,20.7
2023-08-05T04:00:33.973Z,20.7
2023-08-05T04:15:33.296Z,20.7
2023-08-05T04:30:33.690Z,20.6
2023-08-05T04:45:32.724Z,20.6
2023-08-05T05:00:33.721Z,20.6
2023-08-05T05:15:33.373Z,20.6
2023-08-05T05:30:33.428Z,20.6
2023-08-05T05:45:33.373Z,20.6
2023-08-05T06:00:33.422Z,20.6
2023-08-05T06:15:32.807Z,20.5
2023-08-05T06:30:33.249Z,20.5
2023-08-05T06:45:33.634Z,20.5
2023-08-05T07:00:33.356Z,20.5
2023-08-05T07:15:33.646Z,20.5
2023-08-05T07:30:33.668Z,20.5
2023-08-05T07:45:32.985Z,20.5
2023-08-05T08:00:33.420Z,20.5
2023-08-05T08:15:33.297Z,20.5
2023-08-05T08:30:32.849Z,20.5
2023-08-05T08:45:33.755Z,20.5
2023-08-05T09:00:33.661Z,20.5
2023-08-05T09:15:32.967Z,20.6
2023-08-05T09:30:33.226Z,20.6
2023-08-05T09:45:32.814Z,20.6
2023-08-05T10:00:33.464Z,20.7
2023-08-05T10:15:32.826Z,20.7
2023-08-05T10:30:33.083Z,20.7
2023-08-05T10:45:32.607Z,20.8
2023-08-05T11:00:33.455Z,20.8
2023-08-05T11:15:33.413Z,20.8
2023-08-05T11:30:33.515Z,20.8
2023-08-05T11:45:33.652Z,20.8
2023-08-05T12:00:33.725Z,20.8
2023-08-05T12:15:33.899Z,20.8
2023-08-05T12:30:33.664Z,20.8
2023-08-05T12:45:33.268Z,20.8
2023-08-05T13:00:33.510Z,20.8
2023-08-05T13:15:33.327Z,20.8
2023-08-05T13:30:33.286Z,20.8
2023-08-05T13:45:33.236Z,20.8
2023-08-05T14:00:33.672Z,20.8
2023-08-05T14:15:33.496Z,20.8
2023-08-05T14:30:33.585Z,20.8
2023-08-05T14:45:33.775Z,20.8
2023-08-05T15:00:33.226Z,20.7
2023-08-05T15:15:33.296Z,20.7
2023-08-05T15:30:33.430Z,20.7
2023-08-05T15:45:33.186Z,20.7
2023-08-05T16:00:34.100Z,20.7
2023-08-05T16:15:33.703Z,20.6
2023-08-05T16:30:33.202Z,20.6
2023-08-05T16:45:32.959Z,20.6
2023-08-05T17:00:33.486Z,20.6
2023-08-05T17:15:33.336Z,20.6
2023-08-05T17:30:32.850Z,20.5
2023-08-05T17:45:33.535Z,20.5
2023-08-05T18:00:33.960Z,20.5
2023-08-05T18:15:32.804Z,20.5
2023-08-05T18:30:33.692Z,20.4
2023-08-05T18:45:33.850Z,20.4
2023-08-05T19:00:33.892Z,20.4
2023-08-05T19:15:33.275Z,20.4
2023-08-05T19:30:33.472Z,20.3
2023-08-05T19:45:33.843Z,20.3
2023-08-05T20:00:33.722Z,20.3
2023-08-05T20:15:33.134Z,20.3
2023-08-05T20:30:32.980Z,20.3
2023-08-05T20:45:33.359Z,20.2
2023-08-05T21:00:32.941Z,20.2
2023-08-05T21:15:33.811Z,20.2
2023-08-05T21:30:33.307Z,20.2
2023-08-05T21:45:32.831Z,20.2
2023-08-05T22:00:33.664Z,20.1
2023-08-05T22:15:32.883Z,20.1
2023-08-05T22:30:33.270Z,20.1
2023-08-05T22:45:33.263Z,20.2
2023-08-05T23:00:33.449Z,20.2
2023-08-05T23:15:33.497Z,20.2
2023-08-05T23:30:33.667Z,20.3
2023-08-05T23:45:33.048Z,20.3
